createdAt,value
2023-04-22T00:00:53.726Z,10.18
2023-04-22T00:01:48.841Z,10.18
2023-04-22T00:02:44.249Z,10.17
2023-04-22T00:03:39.532Z,10.18
2023-04-22T00:04:34.729Z,10.19
2023-04-22T00:05:29.757Z,10.20
2023-04-22T00:06:24.758Z,10.20
2023-04-22T00:07:19.989Z,10.20
2023-04-22T00:08:15.196Z,10.18
2023-04-22T00:09:10.453Z,10.16
2023-04-22T00:10:05.674Z,10.13
2023-04-22T00:11:01.059Z,10.11
2023-04-22T00:11:56.160Z,10.09
2023-04-22T00:12:51.468Z,10.08
2023-04-22T00:13:46.650Z,10.09
2023-04-22T00:14:41.753Z,10.09
2023-04-22T00:15:37.141Z,10.10
2023-04-22T00:16:32.328Z,10.08
2023-04-22T00:17:27.504Z,10.08
2023-04-22T00:18:22.699Z,10.07
2023-04-22T00:19:17.923Z,10.06
2023-04-22T00:20:13.211Z,10.03
2023-04-22T00:21:08.431Z,10.02
2023-04-22T00:22:03.558Z,10.03
2023-04-22T00:22:58.748Z,10.03
2023-04-22T00:23:54.022Z,9.99
2023-04-22T00:24:49.215Z,9.95
2023-04-22T00:25:44.393Z,9.90
2023-04-22T00:26:39.545Z,9.86
2023-04-22T00:27:34.714Z,9.82
2023-04-22T00:28:29.851Z,9.78
2023-04-22T00:29:25.039Z,9.74
2023-04-22T00:30:20.316Z,9.72
2023-04-22T00:31:15.452Z,9.71
2023-04-22T00:32:10.453Z,9.69
2023-04-22T00:33:05.665Z,9.68
2023-04-22T00:34:00.712Z,9.66
2023-04-22T00:34:55.943Z,9.64
2023-04-22T00:35:51.066Z,9.64
2023-04-22T00:36:46.336Z,9.65
2023-04-22T00:37:41.324Z,9.67
2023-04-22T00:38:36.483Z,9.69
2023-04-22T00:39:31.626Z,9.69
2023-04-22T00:40:26.995Z,9.69
2023-04-22T00:41:22.102Z,9.68
2023-04-22T00:42:17.163Z,9.67
2023-04-22T00:43:12.295Z,9.65
2023-04-22T00:44:07.520Z,9.63
2023-04-22T00:45:02.837Z,9.62
2023-04-22T00:45:57.865Z,9.61
2023-04-22T00:46:53.074Z,9.61
2023-04-22T00:47:48.217Z,9.60
2023-04-22T00:48:43.262Z,9.60
2023-04-22T00:49:38.748Z,9.59
2023-04-22T00:50:33.663Z,9.60
2023-04-22T00:51:28.967Z,9.62
2023-04-22T00:52:23.988Z,9.62
2023-04-22T00:53:19.160Z,9.62
2023-04-22T00:54:14.335Z,9.61
2023-04-22T00:55:09.560Z,9.60
2023-04-22T00:56:04.669Z,9.60
2023-04-22T00:56:59.859Z,9.60
2023-04-22T00:57:55.006Z,9.56
2023-04-22T00:58:50.156Z,9.51
2023-04-22T00:59:45.329Z,9.51
2023-04-22T01:00:40.731Z,9.49
2023-04-22T01:01:35.741Z,9.48
2023-04-22T01:02:30.907Z,9.46
2023-04-22T01:03:26.062Z,9.48
2023-04-22T01:04:21.113Z,9.49
2023-04-22T01:05:16.124Z,9.50
2023-04-22T01:06:11.573Z,9.50
2023-04-22T01:07:06.459Z,9.51
2023-04-22T01:08:01.639Z,9.51
2023-04-22T01:08:56.763Z,9.51
2023-04-22T01:09:51.944Z,9.50
2023-04-22T01:10:47.125Z,9.49
2023-04-22T01:11:42.472Z,9.48
2023-04-22T01:12:37.494Z,9.46
2023-04-22T01:13:32.676Z,9.44
2023-04-22T01:14:27.837Z,9.42
2023-04-22T01:15:23.037Z,9.37
2023-04-22T01:16:19.098Z,9.33
2023-04-22T01:17:14.195Z,9.30
2023-04-22T01:18:09.233Z,9.27
2023-04-22T01:19:04.416Z,9.26
2023-04-22T01:19:59.700Z,9.25
2023-04-22T01:20:54.883Z,9.27
2023-04-22T01:21:50.234Z,9.31
2023-04-22T01:22:45.264Z,9.34
2023-04-22T01:23:40.429Z,9.35
2023-04-22T01:24:35.649Z,9.36
2023-04-22T01:25:30.762Z,9.36
2023-04-22T01:26:26.104Z,9.34
2023-04-22T01:27:21.135Z,9.32
2023-04-22T01:28:16.284Z,9.30
2023-04-22T01:29:11.451Z,9.28
2023-04-22T01:30:06.765Z,9.25
2023-04-22T01:31:01.916Z,9.25
2023-04-22T01:31:57.326Z,9.24
2023-04-22T01:32:52.433Z,9.22
2023-04-22T01:33:47.567Z,9.18
2023-04-22T01:34:42.701Z,9.18
2023-04-22T01:35:37.870Z,9.17
2023-04-22T01:36:33.079Z,9.14
2023-04-22T01:37:28.258Z,9.15
2023-04-22T01:38:23.524Z,9.16
2023-04-22T01:39:18.612Z,9.17
2023-04-22T01:40:13.780Z,9.17
2023-04-22T01:41:08.966Z,9.19
2023-04-22T01:42:04.132Z,9.20
2023-04-22T01:42:59.462Z,9.21
2023-04-22T01:43:54.484Z,9.21
2023-04-22T01:44:49.676Z,9.21
2023-04-22T01:45:44.754Z,9.21
2023-04-22T01:46:40.072Z,9.19
2023-04-22T01:47:35.250Z,9.19
2023-04-22T01:48:30.316Z,9.18
2023-04-22T01:49:25.340Z,9.18
2023-04-22T01:50:20.395Z,9.17
2023-04-22T01:51:15.381Z,9.18
2023-04-22T01:52:10.464Z,9.18
2023-04-22T01:53:05.374Z,9.17
2023-04-22T01:54:00.496Z,9.18
2023-04-22T01:54:55.556Z,9.19
2023-04-22T01:55:50.539Z,9.16
2023-04-22T01:56:45.649Z,9.15
2023-04-22T01:57:40.680Z,9.17
2023-04-22T01:58:35.744Z,9.19
2023-04-22T01:59:30.776Z,9.20
2023-04-22T02:00:25.845Z,9.22
2023-04-22T02:01:20.888Z,9.24
2023-04-22T02:02:16.116Z,9.23
2023-04-22T02:03:11.020Z,9.18
2023-04-22T02:04:06.120Z,9.14
2023-04-22T02:05:01.212Z,9.12
2023-04-22T02:05:56.241Z,9.08
2023-04-22T02:06:51.430Z,9.03
2023-04-22T02:07:46.451Z,9.00
2023-04-22T02:08:41.326Z,8.97
2023-04-22T02:09:36.505Z,8.93
2023-04-22T02:10:31.395Z,8.92
2023-04-22T02:11:26.560Z,8.93
2023-04-22T02:12:21.607Z,8.94
2023-04-22T02:13:16.836Z,8.93
2023-04-22T02:14:11.968Z,8.94
2023-04-22T02:15:07.152Z,8.94
2023-04-22T02:16:02.484Z,8.92
2023-04-22T02:16:57.553Z,8.90
2023-04-22T02:17:52.706Z,8.89
2023-04-22T02:18:47.914Z,8.90
2023-04-22T02:19:43.291Z,8.90
2023-04-22T02:20:38.261Z,8.94
2023-04-22T02:21:33.610Z,8.94
2023-04-22T02:22:28.835Z,8.95
2023-04-22T02:23:23.856Z,8.94
2023-04-22T02:24:19.028Z,8.95
2023-04-22T02:25:14.291Z,8.96
2023-04-22T02:26:09.373Z,8.96
2023-04-22T02:27:04.667Z,8.97
2023-04-22T02:27:59.824Z,8.99
2023-04-22T02:28:54.841Z,8.99
2023-04-22T02:29:50.017Z,8.97
2023-04-22T02:30:45.176Z,8.97
2023-04-22T02:31:40.404Z,8.97
2023-04-22T02:32:35.635Z,8.96
2023-04-22T02:33:30.678Z,8.96
2023-04-22T02:34:25.806Z,8.93
2023-04-22T02:35:21.011Z,8.91
2023-04-22T02:36:16.167Z,8.88
2023-04-22T02:37:11.341Z,8.87
2023-04-22T02:38:06.526Z,8.85
2023-04-22T02:39:01.747Z,8.84
2023-04-22T02:39:56.836Z,8.82
2023-04-22T02:40:52.000Z,8.83
2023-04-22T02:41:47.157Z,8.82
2023-04-22T02:42:42.505Z,8.79
2023-04-22T02:43:37.503Z,8.81
2023-04-22T02:44:32.806Z,8.80
2023-04-22T02:45:27.872Z,8.81
2023-04-22T02:46:23.124Z,8.83
2023-04-22T02:47:18.205Z,8.87
2023-04-22T02:48:13.437Z,8.86
2023-04-22T02:49:08.635Z,8.84
2023-04-22T02:50:03.668Z,8.85
2023-04-22T02:50:58.789Z,8.87
2023-04-22T02:51:53.976Z,8.87
2023-04-22T02:52:49.299Z,8.86
2023-04-22T02:53:44.347Z,8.84
2023-04-22T02:54:39.400Z,8.83
2023-04-22T02:55:34.743Z,8.83
2023-04-22T02:56:29.839Z,8.83
2023-04-22T02:57:24.929Z,8.82
2023-04-22T02:58:19.929Z,8.81
2023-04-22T02:59:15.177Z,8.80
2023-04-22T03:00:10.335Z,8.80
2023-04-22T03:01:05.769Z,8.75
2023-04-22T03:02:00.722Z,8.69
2023-04-22T03:02:56.099Z,8.66
2023-04-22T03:03:51.135Z,8.67
2023-04-22T03:04:46.226Z,8.71
2023-04-22T03:05:41.364Z,8.72
2023-04-22T03:06:36.412Z,8.71
2023-04-22T03:07:31.580Z,8.71
2023-04-22T03:08:26.782Z,8.72
2023-04-22T03:09:21.940Z,8.73
2023-04-22T03:10:17.105Z,8.76
2023-04-22T03:11:12.399Z,8.81
2023-04-22T03:12:07.596Z,8.82
2023-04-22T03:13:02.729Z,8.79
2023-04-22T03:13:57.749Z,8.79
2023-04-22T03:14:52.880Z,8.78
2023-04-22T03:15:48.103Z,8.75
2023-04-22T03:16:43.288Z,8.73
2023-04-22T03:17:38.686Z,8.70
2023-04-22T03:18:33.596Z,8.69
2023-04-22T03:19:28.814Z,8.68
2023-04-22T03:20:23.841Z,8.68
2023-04-22T03:21:19.057Z,8.68
2023-04-22T03:22:14.233Z,8.67
2023-04-22T03:23:09.461Z,8.67
2023-04-22T03:24:04.471Z,8.69
2023-04-22T03:24:59.663Z,8.70
2023-04-22T03:25:54.859Z,8.73
2023-04-22T03:26:49.915Z,8.76
2023-04-22T03:27:44.977Z,8.78
2023-04-22T03:28:40.020Z,8.79
2023-04-22T03:29:35.056Z,8.81
2023-04-22T03:30:30.100Z,8.83
2023-04-22T03:31:25.191Z,8.84
2023-04-22T03:32:20.203Z,8.85
2023-04-22T03:33:15.285Z,8.86
2023-04-22T03:34:10.333Z,8.87
2023-04-22T03:35:05.321Z,8.86
2023-04-22T03:36:00.398Z,8.82
2023-04-22T03:36:55.428Z,8.79
2023-04-22T03:37:50.636Z,8.78
2023-04-22T03:38:45.509Z,8.78
2023-04-22T03:39:40.819Z,8.80
2023-04-22T03:40:35.531Z,8.79
2023-04-22T03:41:30.604Z,8.78
2023-04-22T03:42:25.647Z,8.75
2023-04-22T03:43:20.696Z,8.74
2023-04-22T03:44:15.742Z,8.72
2023-04-22T03:45:10.803Z,8.71
2023-04-22T03:46:05.898Z,8.70
2023-04-22T03:47:00.933Z,8.71
2023-04-22T03:47:56.049Z,8.71
2023-04-22T03:48:51.114Z,8.70
2023-04-22T03:49:46.150Z,8.71
2023-04-22T03:50:41.184Z,8.72
2023-04-22T03:51:36.209Z,8.73
2023-04-22T03:52:31.499Z,8.72
2023-04-22T03:53:26.555Z,8.74
2023-04-22T03:54:21.739Z,8.76
2023-04-22T03:55:17.094Z,8.76
2023-04-22T03:56:12.147Z,8.76
2023-04-22T03:57:07.381Z,8.75
2023-04-22T03:58:02.748Z,8.76
2023-04-22T03:58:57.784Z,8.74
2023-04-22T03:59:53.023Z,8.73
2023-04-22T04:00:48.198Z,8.75
2023-04-22T04:01:43.434Z,8.75
2023-04-22T04:02:38.823Z,8.72
2023-04-22T04:03:34.075Z,8.71
2023-04-22T04:04:29.381Z,8.71
2023-04-22T04:05:24.299Z,8.70
2023-04-22T04:06:19.364Z,8.69
2023-04-22T04:07:14.798Z,8.69
2023-04-22T04:08:09.878Z,8.70
2023-04-22T04:09:05.190Z,8.66
2023-04-22T04:10:00.346Z,8.64
2023-04-22T04:10:55.666Z,8.65
2023-04-22T04:11:51.033Z,8.65
2023-04-22T04:12:46.270Z,8.66
2023-04-22T04:13:41.331Z,8.68
2023-04-22T04:14:36.584Z,8.68
2023-04-22T04:15:31.805Z,8.66
2023-04-22T04:16:27.106Z,8.68
2023-04-22T04:17:22.354Z,8.67
2023-04-22T04:18:17.648Z,8.67
2023-04-22T04:19:12.813Z,8.65
2023-04-22T04:20:08.103Z,8.65
2023-04-22T04:21:03.395Z,8.65
2023-04-22T04:21:58.972Z,8.63
2023-04-22T04:22:54.002Z,8.61
2023-04-22T04:23:49.497Z,8.61
2023-04-22T04:24:44.683Z,8.60
2023-04-22T04:25:40.043Z,8.56
2023-04-22T04:26:35.244Z,8.54
2023-04-22T04:27:30.612Z,8.54
2023-04-22T04:28:25.945Z,8.53
2023-04-22T04:29:21.175Z,8.52
2023-04-22T04:30:16.501Z,8.54
2023-04-22T04:31:11.772Z,8.57
2023-04-22T04:32:07.071Z,8.59
2023-04-22T04:33:02.143Z,8.59
2023-04-22T04:33:57.205Z,8.62
2023-04-22T04:34:52.306Z,8.64
2023-04-22T04:35:47.475Z,8.65
2023-04-22T04:36:42.584Z,8.66
2023-04-22T04:37:37.671Z,8.65
2023-04-22T04:38:32.644Z,8.62
2023-04-22T04:39:27.687Z,8.61
2023-04-22T04:40:22.805Z,8.60
2023-04-22T04:41:17.828Z,8.60
2023-04-22T04:42:12.939Z,8.57
2023-04-22T04:43:07.996Z,8.58
2023-04-22T04:44:03.086Z,8.58
2023-04-22T04:44:58.126Z,8.57
2023-04-22T04:45:53.232Z,8.59
2023-04-22T04:46:48.490Z,8.59
2023-04-22T04:47:43.440Z,8.58
2023-04-22T04:48:38.405Z,8.56
2023-04-22T04:49:33.519Z,8.54
2023-04-22T04:50:28.499Z,8.51
2023-04-22T04:51:23.629Z,8.48
2023-04-22T04:52:18.623Z,8.43
2023-04-22T04:53:13.885Z,8.43
2023-04-22T04:54:09.264Z,8.43
2023-04-22T04:55:04.690Z,8.42
2023-04-22T04:56:00.044Z,8.42
2023-04-22T04:56:55.462Z,8.44
2023-04-22T04:57:50.708Z,8.42
2023-04-22T04:58:46.161Z,8.40
2023-04-22T04:59:41.762Z,8.41
2023-04-22T05:00:36.994Z,8.41
2023-04-22T05:01:32.125Z,8.41
2023-04-22T05:02:27.558Z,8.44
2023-04-22T05:03:22.357Z,8.46
2023-04-22T05:04:17.551Z,8.48
2023-04-22T05:05:12.347Z,8.47
2023-04-22T05:06:07.482Z,8.47
2023-04-22T05:07:02.635Z,8.48
2023-04-22T05:07:57.491Z,8.49
2023-04-22T05:08:52.484Z,8.50
2023-04-22T05:09:47.622Z,8.56
2023-04-22T05:10:42.601Z,8.63
2023-04-22T05:11:37.791Z,8.67
2023-04-22T05:12:32.676Z,8.71
2023-04-22T05:13:27.731Z,8.76
2023-04-22T05:14:25.210Z,8.79
2023-04-22T05:15:20.243Z,8.81
2023-04-22T05:16:15.449Z,8.83
2023-04-22T05:17:10.703Z,8.84
2023-04-22T05:18:05.689Z,8.86
2023-04-22T05:19:00.777Z,8.89
2023-04-22T05:19:55.788Z,8.92
2023-04-22T05:20:50.825Z,8.94
2023-04-22T05:21:46.004Z,8.94
2023-04-22T05:22:40.909Z,8.93
2023-04-22T05:23:35.981Z,8.96
2023-04-22T05:24:31.038Z,8.93
2023-04-22T05:25:26.098Z,8.92
2023-04-22T05:26:21.175Z,8.95
2023-04-22T05:27:16.195Z,8.98
2023-04-22T05:28:11.659Z,8.99
2023-04-22T05:29:06.832Z,9.03
2023-04-22T05:30:02.302Z,9.05
2023-04-22T05:30:57.641Z,9.07
2023-04-22T05:31:53.434Z,9.08
2023-04-22T05:32:48.602Z,9.11
2023-04-22T05:33:43.964Z,9.13
2023-04-22T05:34:39.251Z,9.12
2023-04-22T05:35:34.723Z,9.13
2023-04-22T05:36:37.904Z,9.15
2023-04-22T05:37:25.650Z,9.14
2023-04-22T05:38:20.861Z,9.15
2023-04-22T05:39:16.617Z,9.15
2023-04-22T05:40:11.944Z,9.15
2023-04-22T05:41:06.978Z,9.12
2023-04-22T05:42:02.095Z,9.16
2023-04-22T05:42:57.279Z,9.19
2023-04-22T05:43:52.452Z,9.21
2023-04-22T05:44:47.535Z,9.22
2023-04-22T05:45:42.578Z,9.25
2023-04-22T05:46:37.927Z,9.29
2023-04-22T05:47:32.763Z,9.32
2023-04-22T05:48:27.813Z,9.34
2023-04-22T05:49:22.917Z,9.37
2023-04-22T05:50:17.955Z,9.39
2023-04-22T05:51:13.055Z,9.41
2023-04-22T05:52:10.277Z,9.42
2023-04-22T05:53:05.194Z,9.44
2023-04-22T05:54:00.233Z,9.47
2023-04-22T05:54:55.319Z,9.50
2023-04-22T05:55:50.273Z,9.52
2023-04-22T05:56:45.547Z,9.54
2023-04-22T05:57:40.441Z,9.58
2023-04-22T05:58:35.517Z,9.60
2023-04-22T05:59:30.493Z,9.63
2023-04-22T06:00:25.537Z,9.64
2023-04-22T06:01:22.081Z,9.63
2023-04-22T06:02:17.584Z,9.62
2023-04-22T06:03:13.256Z,9.62
2023-04-22T06:04:08.956Z,9.63
2023-04-22T06:05:04.224Z,9.62
2023-04-22T06:05:59.898Z,9.63
2023-04-22T06:06:55.234Z,9.65
2023-04-22T06:07:51.033Z,9.68
2023-04-22T06:08:46.539Z,9.70
2023-04-22T06:09:42.079Z,9.73
2023-04-22T06:10:37.450Z,9.76
2023-04-22T06:11:32.989Z,9.82
2023-04-22T06:12:28.122Z,9.85
2023-04-22T06:13:24.724Z,9.88
2023-04-22T06:14:20.045Z,9.91
2023-04-22T06:15:15.804Z,9.94
2023-04-22T06:16:11.214Z,9.98
2023-04-22T06:17:06.698Z,10.02
2023-04-22T06:18:02.518Z,10.05
2023-04-22T06:18:57.917Z,10.09
2023-04-22T06:19:53.774Z,10.13
2023-04-22T06:20:49.106Z,10.14
2023-04-22T06:21:44.643Z,10.16
2023-04-22T06:22:41.188Z,10.19
2023-04-22T06:23:36.462Z,10.24
2023-04-22T06:24:31.870Z,10.25
2023-04-22T06:25:28.128Z,10.24
2023-04-22T06:26:23.707Z,10.22
2023-04-22T06:27:19.465Z,10.21
2023-04-22T06:28:14.910Z,10.23
2023-04-22T06:29:10.382Z,10.26
2023-04-22T06:30:06.034Z,10.30
2023-04-22T06:31:01.578Z,10.34
2023-04-22T06:31:57.275Z,10.40
2023-04-22T06:32:52.648Z,10.47
2023-04-22T06:33:48.056Z,10.52
2023-04-22T06:34:43.768Z,10.57
2023-04-22T06:35:39.241Z,10.60
2023-04-22T06:36:34.812Z,10.63
2023-04-22T06:37:30.958Z,10.65
2023-04-22T06:38:26.336Z,10.68
2023-04-22T06:39:22.288Z,10.71
2023-04-22T06:40:17.628Z,10.72
2023-04-22T06:41:13.269Z,10.72
2023-04-22T06:42:08.936Z,10.72
2023-04-22T06:43:04.259Z,10.72
2023-04-22T06:44:00.147Z,10.78
2023-04-22T06:44:55.431Z,10.81
2023-04-22T06:45:50.901Z,10.84
2023-04-22T06:46:46.703Z,10.90
2023-04-22T06:47:41.954Z,10.95
2023-04-22T06:48:37.582Z,10.98
2023-04-22T06:49:32.909Z,11.01
2023-04-22T06:50:28.863Z,11.07
2023-04-22T06:51:24.248Z,11.14
2023-04-22T06:52:20.101Z,11.18
2023-04-22T06:53:15.351Z,11.20
2023-04-22T06:54:10.823Z,11.23
2023-04-22T06:55:06.119Z,11.26
2023-04-22T06:56:02.970Z,11.27
2023-04-22T06:56:58.190Z,11.24
2023-04-22T06:57:54.032Z,11.25
2023-04-22T06:58:49.363Z,11.33
2023-04-22T06:59:46.811Z,11.42
2023-04-22T07:00:40.647Z,11.52
2023-04-22T07:01:36.049Z,11.58
2023-04-22T07:02:31.873Z,11.63
2023-04-22T07:03:27.254Z,11.70
2023-04-22T07:04:22.606Z,11.79
2023-04-22T07:05:18.357Z,11.89
2023-04-22T07:06:13.722Z,11.98
2023-04-22T07:07:09.250Z,12.02
2023-04-22T07:08:04.486Z,12.00
2023-04-22T07:09:00.174Z,11.97
2023-04-22T07:09:55.499Z,11.95
2023-04-22T07:10:50.739Z,11.97
2023-04-22T07:11:45.665Z,11.97
2023-04-22T07:12:40.681Z,11.95
2023-04-22T07:13:35.714Z,11.95
2023-04-22T07:14:30.793Z,11.95
2023-04-22T07:15:25.873Z,12.04
2023-04-22T07:16:20.980Z,12.17
2023-04-22T07:17:15.958Z,12.33
2023-04-22T07:18:10.989Z,12.49
2023-04-22T07:19:06.149Z,12.66
2023-04-22T07:20:01.266Z,12.80
2023-04-22T07:20:56.355Z,12.99
2023-04-22T07:21:51.552Z,13.08
2023-04-22T07:22:46.591Z,13.15
2023-04-22T07:23:41.798Z,13.20
2023-04-22T07:24:37.560Z,13.28
2023-04-22T07:25:33.207Z,13.39
2023-04-22T07:26:28.433Z,13.48
2023-04-22T07:27:24.548Z,13.54
2023-04-22T07:28:19.813Z,13.67
2023-04-22T07:29:15.553Z,13.85
2023-04-22T07:30:10.977Z,14.04
2023-04-22T07:31:06.729Z,14.04
2023-04-22T07:32:02.496Z,14.07
2023-04-22T07:32:58.007Z,14.24
2023-04-22T07:33:53.402Z,14.37
2023-04-22T07:34:49.701Z,14.54
2023-04-22T07:35:45.155Z,14.69
2023-04-22T07:36:40.997Z,14.83
2023-04-22T07:37:36.440Z,14.88
2023-04-22T07:38:32.000Z,14.85
2023-04-22T07:39:27.722Z,14.83
2023-04-22T07:40:23.199Z,14.82
2023-04-22T07:41:19.018Z,14.60
2023-04-22T07:42:14.288Z,14.46
2023-04-22T07:43:09.596Z,14.43
2023-04-22T07:44:05.386Z,14.47
2023-04-22T07:45:00.842Z,14.50
2023-04-22T07:45:56.414Z,14.57
2023-04-22T07:46:52.527Z,14.56
2023-04-22T07:47:48.014Z,14.55
2023-04-22T07:48:43.734Z,14.45
2023-04-22T07:49:39.472Z,14.42
2023-04-22T07:50:36.368Z,14.39
2023-04-22T07:51:30.552Z,14.43
2023-04-22T07:52:26.026Z,14.38
2023-04-22T07:53:21.930Z,14.40
2023-04-22T07:54:17.290Z,14.46
2023-04-22T07:55:12.707Z,14.43
2023-04-22T07:56:08.313Z,14.47
2023-04-22T07:57:03.808Z,14.62
2023-04-22T07:57:59.287Z,14.77
2023-04-22T07:58:55.510Z,14.92
2023-04-22T07:59:51.143Z,15.07
2023-04-22T08:00:46.845Z,14.96
2023-04-22T08:01:42.320Z,14.94
2023-04-22T08:02:38.041Z,15.03
2023-04-22T08:03:33.791Z,15.17
2023-04-22T08:04:29.324Z,15.32
2023-04-22T08:05:25.043Z,15.44
2023-04-22T08:06:20.248Z,15.48
2023-04-22T08:07:32.149Z,15.47
2023-04-22T08:08:12.525Z,15.47
2023-04-22T08:09:07.264Z,15.51
2023-04-22T08:10:02.608Z,15.39
2023-04-22T08:10:58.934Z,15.32
2023-04-22T08:11:54.481Z,15.27
2023-04-22T08:12:50.203Z,15.35
2023-04-22T08:13:45.599Z,15.44
2023-04-22T08:14:40.922Z,15.56
2023-04-22T08:15:37.113Z,15.69
2023-04-22T08:16:32.314Z,15.68
2023-04-22T08:17:27.839Z,15.79
2023-04-22T08:18:23.166Z,15.92
2023-04-22T08:19:18.924Z,15.99
2023-04-22T08:20:14.429Z,16.10
2023-04-22T08:21:09.819Z,16.04
2023-04-22T08:22:06.072Z,15.96
2023-04-22T08:23:01.463Z,15.96
2023-04-22T08:23:57.089Z,16.09
2023-04-22T08:24:52.753Z,16.15
2023-04-22T08:25:48.088Z,16.11
2023-04-22T08:26:43.840Z,15.99
2023-04-22T08:27:39.206Z,16.00
2023-04-22T08:28:35.098Z,16.07
2023-04-22T08:29:30.607Z,16.11
2023-04-22T08:30:26.132Z,16.20
2023-04-22T08:31:21.854Z,16.28
2023-04-22T08:32:17.385Z,16.30
2023-04-22T08:33:12.706Z,16.25
2023-04-22T08:34:09.421Z,16.30
2023-04-22T08:35:05.700Z,16.19
2023-04-22T08:36:00.342Z,16.19
2023-04-22T08:36:55.804Z,16.30
2023-04-22T08:37:51.339Z,16.30
2023-04-22T08:38:48.330Z,16.22
2023-04-22T08:39:41.560Z,16.31
2023-04-22T08:40:36.414Z,16.47
2023-04-22T08:41:31.524Z,16.50
2023-04-22T08:42:26.764Z,16.46
2023-04-22T08:43:21.971Z,16.46
2023-04-22T08:44:17.590Z,16.43
2023-04-22T08:45:14.095Z,16.31
2023-04-22T08:46:09.459Z,16.20
2023-04-22T08:47:05.473Z,16.23
2023-04-22T08:48:00.889Z,16.34
2023-04-22T08:48:56.341Z,16.42
2023-04-22T08:49:52.142Z,16.35
2023-04-22T08:50:47.632Z,16.33
2023-04-22T08:51:43.494Z,16.34
2023-04-22T08:52:38.888Z,16.40
2023-04-22T08:53:34.217Z,16.49
2023-04-22T08:54:30.010Z,16.63
2023-04-22T08:55:25.485Z,16.65
2023-04-22T08:56:21.306Z,16.70
2023-04-22T08:57:17.191Z,16.79
2023-04-22T08:58:12.698Z,16.90
2023-04-22T08:59:08.560Z,16.93
2023-04-22T09:00:04.190Z,16.94
2023-04-22T09:00:59.511Z,17.06
2023-04-22T09:01:55.461Z,17.17
2023-04-22T09:02:51.006Z,17.32
2023-04-22T09:03:46.933Z,17.47
2023-04-22T09:04:42.187Z,17.59
2023-04-22T09:05:37.628Z,17.79
2023-04-22T09:06:33.397Z,17.99
2023-04-22T09:07:29.169Z,18.21
2023-04-22T09:08:24.474Z,18.40
2023-04-22T09:09:21.007Z,18.58
2023-04-22T09:10:16.472Z,18.71
2023-04-22T09:11:12.361Z,18.67
2023-04-22T09:12:07.714Z,18.48
2023-04-22T09:13:03.225Z,18.35
2023-04-22T09:13:58.843Z,18.14
2023-04-22T09:14:54.513Z,17.92
2023-04-22T09:15:50.320Z,17.87
2023-04-22T09:16:45.611Z,17.86
2023-04-22T09:17:40.960Z,17.73
2023-04-22T09:18:36.853Z,17.67
2023-04-22T09:19:32.476Z,17.81
2023-04-22T09:20:27.866Z,17.97
2023-04-22T09:21:24.326Z,18.12
2023-04-22T09:22:19.781Z,18.14
2023-04-22T09:23:15.632Z,18.15
2023-04-22T09:24:11.282Z,18.33
2023-04-22T09:25:06.608Z,18.54
2023-04-22T09:26:02.558Z,18.72
2023-04-22T09:26:58.020Z,18.81
2023-04-22T09:27:53.927Z,18.80
2023-04-22T09:28:49.270Z,18.80
2023-04-22T09:29:44.926Z,18.74
2023-04-22T09:30:40.665Z,18.66
2023-04-22T09:31:35.977Z,18.52
2023-04-22T09:32:31.501Z,18.35
2023-04-22T09:33:27.866Z,18.14
2023-04-22T09:34:23.143Z,17.96
2023-04-22T09:35:19.178Z,17.94
2023-04-22T09:36:14.511Z,17.90
2023-04-22T09:37:10.154Z,17.83
2023-04-22T09:38:05.779Z,17.80
2023-04-22T09:39:01.290Z,17.85
2023-04-22T09:39:57.204Z,17.78
2023-04-22T09:40:52.471Z,17.85
2023-04-22T09:41:47.928Z,18.00
2023-04-22T09:42:43.714Z,18.02
2023-04-22T09:43:39.020Z,18.09
2023-04-22T09:44:34.924Z,18.22
2023-04-22T09:45:30.524Z,18.41
2023-04-22T09:46:26.161Z,18.60
2023-04-22T09:47:21.878Z,18.75
2023-04-22T09:48:17.330Z,18.91
2023-04-22T09:49:13.313Z,19.06
2023-04-22T09:50:08.679Z,19.17
2023-04-22T09:51:04.014Z,19.36
2023-04-22T09:52:00.111Z,19.52
2023-04-22T09:52:55.461Z,19.57
2023-04-22T09:53:50.900Z,19.65
2023-04-22T09:54:47.309Z,19.70
2023-04-22T09:55:42.757Z,19.78
2023-04-22T09:56:38.665Z,19.84
2023-04-22T09:57:34.118Z,19.98
2023-04-22T09:58:29.737Z,20.15
2023-04-22T09:59:25.242Z,20.25
2023-04-22T10:00:20.776Z,20.43
2023-04-22T10:01:17.371Z,20.58
2023-04-22T10:02:12.866Z,20.77
2023-04-22T10:03:10.630Z,20.78
2023-04-22T10:04:04.155Z,20.55
2023-04-22T10:04:59.512Z,20.53
2023-04-22T10:05:54.896Z,20.59
2023-04-22T10:06:50.201Z,20.59
2023-04-22T10:07:45.331Z,20.46
2023-04-22T10:08:40.291Z,20.34
2023-04-22T10:09:35.408Z,20.49
2023-04-22T10:10:30.356Z,20.68
2023-04-22T10:11:25.444Z,20.60
2023-04-22T10:12:26.177Z,20.37
2023-04-22T10:13:16.589Z,20.39
2023-04-22T10:14:10.556Z,20.47
2023-04-22T10:15:09.299Z,20.58
2023-04-22T10:16:04.247Z,20.70
2023-04-22T10:16:59.413Z,20.78
2023-04-22T10:17:54.369Z,20.83
2023-04-22T10:18:49.485Z,20.99
2023-04-22T10:19:44.543Z,21.20
2023-04-22T10:20:39.525Z,21.29
2023-04-22T10:21:34.608Z,20.95
2023-04-22T10:22:29.659Z,20.90
2023-04-22T10:23:25.118Z,20.86
2023-04-22T10:24:21.598Z,20.84
2023-04-22T10:25:17.078Z,20.71
2023-04-22T10:26:12.981Z,20.61
2023-04-22T10:27:08.638Z,20.56
2023-04-22T10:28:03.989Z,20.43
2023-04-22T10:29:00.106Z,20.24
2023-04-22T10:29:55.491Z,20.25
2023-04-22T10:30:51.187Z,20.24
2023-04-22T10:31:46.633Z,20.29
2023-04-22T10:32:42.147Z,20.21
2023-04-22T10:33:38.034Z,20.14
2023-04-22T10:34:33.640Z,19.91
2023-04-22T10:35:29.130Z,19.85
2023-04-22T10:36:25.413Z,19.98
2023-04-22T10:37:21.043Z,19.92
2023-04-22T10:38:16.946Z,19.86
2023-04-22T10:39:12.449Z,19.91
2023-04-22T10:40:07.900Z,20.13
2023-04-22T10:41:04.001Z,20.14
2023-04-22T10:41:59.322Z,20.26
2023-04-22T10:42:55.212Z,20.51
2023-04-22T10:43:50.539Z,20.78
2023-04-22T10:44:46.453Z,20.71
2023-04-22T10:45:41.980Z,20.45
2023-04-22T10:46:37.878Z,20.27
2023-04-22T10:47:32.999Z,20.12
2023-04-22T10:48:28.244Z,20.11
2023-04-22T10:49:23.191Z,20.28
2023-04-22T10:50:18.277Z,20.50
2023-04-22T10:51:13.354Z,20.80
2023-04-22T10:52:08.429Z,20.95
2023-04-22T10:53:03.645Z,21.04
2023-04-22T10:53:58.732Z,21.04
2023-04-22T10:54:53.938Z,21.04
2023-04-22T10:55:49.052Z,21.01
2023-04-22T10:57:39.256Z,21.00
2023-04-22T10:58:36.205Z,20.87
2023-04-22T10:59:31.477Z,20.69
2023-04-22T11:00:27.043Z,20.73
2023-04-22T11:01:21.493Z,20.83
2023-04-22T11:02:16.515Z,21.14
2023-04-22T11:03:11.739Z,21.43
2023-04-22T11:04:06.767Z,21.58
2023-04-22T11:05:01.900Z,21.58
2023-04-22T11:05:56.797Z,21.61
2023-04-22T11:06:52.282Z,21.86
2023-04-22T11:07:48.595Z,21.88
2023-04-22T11:08:44.074Z,21.91
2023-04-22T11:09:40.337Z,22.11
2023-04-22T11:10:35.816Z,22.20
2023-04-22T11:11:30.753Z,22.37
2023-04-22T11:12:26.697Z,22.69
2023-04-22T11:13:22.319Z,22.82
2023-04-22T11:14:17.813Z,22.61
2023-04-22T11:15:12.764Z,22.46
2023-04-22T11:16:07.940Z,22.25
2023-04-22T11:17:02.903Z,22.10
2023-04-22T11:17:58.061Z,22.18
2023-04-22T11:18:53.022Z,22.07
2023-04-22T11:19:54.135Z,22.06
2023-04-22T11:20:49.491Z,21.98
2023-04-22T11:21:45.030Z,22.02
2023-04-22T11:22:40.855Z,22.22
2023-04-22T11:23:36.310Z,22.47
2023-04-22T11:24:31.688Z,22.54
2023-04-22T11:25:27.976Z,22.60
2023-04-22T11:26:23.484Z,22.72
2023-04-22T11:27:19.511Z,22.48
2023-04-22T11:28:14.757Z,22.05
2023-04-22T11:29:10.186Z,22.01
2023-04-22T11:30:05.864Z,22.13
2023-04-22T11:31:01.321Z,22.31
2023-04-22T11:31:56.716Z,22.31
2023-04-22T11:32:52.133Z,22.13
2023-04-22T11:33:49.777Z,21.95
2023-04-22T11:34:42.566Z,21.76
2023-04-22T11:35:37.569Z,21.80
2023-04-22T11:36:32.698Z,21.94
2023-04-22T11:37:27.779Z,22.05
2023-04-22T11:38:22.845Z,22.09
2023-04-22T11:39:18.065Z,21.89
2023-04-22T11:40:28.929Z,21.67
2023-04-22T11:41:08.967Z,21.60
2023-04-22T11:42:03.141Z,21.52
2023-04-22T11:42:58.094Z,21.45
2023-04-22T11:43:53.437Z,21.54
2023-04-22T11:44:48.293Z,21.66
2023-04-22T11:45:43.428Z,21.64
2023-04-22T11:46:38.739Z,21.72
2023-04-22T11:47:34.214Z,21.85
2023-04-22T11:48:30.128Z,22.05
2023-04-22T11:49:25.592Z,22.19
2023-04-22T11:50:20.872Z,22.31
2023-04-22T11:51:16.744Z,22.48
2023-04-22T11:52:12.246Z,22.57
2023-04-22T11:53:08.271Z,22.26
2023-04-22T11:54:03.612Z,21.98
2023-04-22T11:54:58.881Z,22.00
2023-04-22T11:55:54.560Z,22.21
2023-04-22T11:56:49.972Z,22.49
2023-04-22T11:57:45.362Z,22.80
2023-04-22T11:58:41.800Z,23.07
2023-04-22T11:59:37.196Z,23.26
2023-04-22T12:00:33.077Z,23.25
2023-04-22T12:01:28.500Z,23.34
2023-04-22T12:02:23.980Z,23.53
2023-04-22T12:03:19.834Z,23.72
2023-04-22T12:04:15.400Z,23.68
2023-04-22T12:05:10.922Z,23.60
2023-04-22T12:06:06.202Z,23.53